sensor_id;sensor_type;location;lat;lon;timestamp;P1;durP1;ratioP1;P2;durP2;ratioP2
836;SDS011;400;53.550;9.932;2023-04-25T00:02:01;3.80;;;3.58;;
836;SDS011;400;53.550;9.932;2023-04-25T00:04:28;3.65;;;3.25;;
836;SDS011;400;53.550;9.932;2023-04-25T00:06:58;4.93;;;3.40;;
836;SDS011;400;53.550;9.932;2023-04-25T00:09:27;7.80;;;3.10;;
836;SDS011;400;53.550;9.932;2023-04-25T00:11:54;8.10;;;3.55;;
836;SDS011;400;53.550;9.932;2023-04-25T00:14:21;9.45;;;4.03;;
836;SDS011;400;53.550;9.932;2023-04-25T00:16:48;10.80;;;5.38;;
836;SDS011;400;53.550;9.932;2023-04-25T00:19:18;10.85;;;3.88;;
836;SDS011;400;53.550;9.932;2023-04-25T00:21:44;10.90;;;4.20;;
836;SDS011;400;53.550;9.932;2023-04-25T00:24:11;8.27;;;3.30;;
836;SDS011;400;53.550;9.932;2023-04-25T00:26:39;9.25;;;3.85;;
836;SDS011;400;53.550;9.932;2023-04-25T00:29:05;9.73;;;4.03;;
836;SDS011;400;53.550;9.932;2023-04-25T00:31:32;10.23;;;4.07;;
836;SDS011;400;53.550;9.932;2023-04-25T00:33:59;8.82;;;3.22;;
836;SDS011;400;53.550;9.932;2023-04-25T00:36:27;8.55;;;3.45;;
836;SDS011;400;53.550;9.932;2023-04-25T00:38:55;9.23;;;4.38;;
836;SDS011;400;53.550;9.932;2023-04-25T00:41:21;10.07;;;3.25;;
836;SDS011;400;53.550;9.932;2023-04-25T00:43:50;14.55;;;4.75;;
836;SDS011;400;53.550;9.932;2023-04-25T00:46:18;11.60;;;3.47;;
836;SDS011;400;53.550;9.932;2023-04-25T00:48:44;13.73;;;4.25;;
836;SDS011;400;53.550;9.932;2023-04-25T00:51:13;8.07;;;4.28;;
836;SDS011;400;53.550;9.932;2023-04-25T00:53:43;11.98;;;3.45;;
836;SDS011;400;53.550;9.932;2023-04-25T00:56:11;13.82;;;4.70;;
836;SDS011;400;53.550;9.932;2023-04-25T00:58:38;10.80;;;3.20;;
836;SDS011;400;53.550;9.932;2023-04-25T01:01:06;9.30;;;3.70;;
836;SDS011;400;53.550;9.932;2023-04-25T01:03:34;10.43;;;5.40;;
836;SDS011;400;53.550;9.932;2023-04-25T01:06:05;13.27;;;3.78;;
836;SDS011;400;53.550;9.932;2023-04-25T01:08:33;10.35;;;3.78;;
836;SDS011;400;53.550;9.932;2023-04-25T01:11:02;14.93;;;4.25;;
836;SDS011;400;53.550;9.932;2023-04-25T01:13:29;9.00;;;3.20;;
836;SDS011;400;53.550;9.932;2023-04-25T01:15:57;13.32;;;4.07;;
836;SDS011;400;53.550;9.932;2023-04-25T01:18:24;10.87;;;3.90;;
836;SDS011;400;53.550;9.932;2023-04-25T01:20:51;13.07;;;3.58;;
836;SDS011;400;53.550;9.932;2023-04-25T01:23:20;10.85;;;3.90;;
836;SDS011;400;53.550;9.932;2023-04-25T01:25:47;12.02;;;5.03;;
836;SDS011;400;53.550;9.932;2023-04-25T01:28:15;16.52;;;5.05;;
836;SDS011;400;53.550;9.932;2023-04-25T01:30:42;7.68;;;3.92;;
836;SDS011;400;53.550;9.932;2023-04-25T01:33:10;8.10;;;4.47;;
836;SDS011;400;53.550;9.932;2023-04-25T01:35:39;11.20;;;4.47;;
836;SDS011;400;53.550;9.932;2023-04-25T01:38:06;21.73;;;4.93;;
836;SDS011;400;53.550;9.932;2023-04-25T01:40:34;15.07;;;5.05;;
836;SDS011;400;53.550;9.932;2023-04-25T01:43:05;12.67;;;4.30;;
836;SDS011;400;53.550;9.932;2023-04-25T01:45:33;13.35;;;4.15;;
836;SDS011;400;53.550;9.932;2023-04-25T01:48:01;9.48;;;3.85;;
836;SDS011;400;53.550;9.932;2023-04-25T01:50:28;14.82;;;4.50;;
836;SDS011;400;53.550;9.932;2023-04-25T01:52:55;8.93;;;4.60;;
836;SDS011;400;53.550;9.932;2023-04-25T01:55:22;18.17;;;5.80;;
836;SDS011;400;53.550;9.932;2023-04-25T01:57:51;14.95;;;4.20;;
836;SDS011;400;53.550;9.932;2023-04-25T02:00:18;15.57;;;4.40;;
836;SDS011;400;53.550;9.932;2023-04-25T02:02:45;10.43;;;4.30;;
836;SDS011;400;53.550;9.932;2023-04-25T02:05:13;17.20;;;6.03;;
836;SDS011;400;53.550;9.932;2023-04-25T02:07:40;11.93;;;4.47;;
836;SDS011;400;53.550;9.932;2023-04-25T02:10:07;8.13;;;3.92;;
836;SDS011;400;53.550;9.932;2023-04-25T02:12:35;16.27;;;4.97;;
836;SDS011;400;53.550;9.932;2023-04-25T02:15:04;17.98;;;5.53;;
836;SDS011;400;53.550;9.932;2023-04-25T02:17:32;10.82;;;4.22;;
836;SDS011;400;53.550;9.932;2023-04-25T02:19:58;13.32;;;5.32;;
836;SDS011;400;53.550;9.932;2023-04-25T02:22:25;13.43;;;4.50;;
836;SDS011;400;53.550;9.932;2023-04-25T02:24:55;21.27;;;5.55;;
836;SDS011;400;53.550;9.932;2023-04-25T02:27:22;16.52;;;4.88;;
836;SDS011;400;53.550;9.932;2023-04-25T02:29:48;14.13;;;4.38;;
836;SDS011;400;53.550;9.932;2023-04-25T02:32:16;13.30;;;4.55;;
836;SDS011;400;53.550;9.932;2023-04-25T02:34:43;12.57;;;4.70;;
836;SDS011;400;53.550;9.932;2023-04-25T02:37:10;16.80;;;5.10;;
836;SDS011;400;53.550;9.932;2023-04-25T02:39:37;17.52;;;4.50;;
836;SDS011;400;53.550;9.932;2023-04-25T02:42:04;9.85;;;3.13;;
836;SDS011;400;53.550;9.932;2023-04-25T02:44:31;34.78;;;4.63;;
836;SDS011;400;53.550;9.932;2023-04-25T02:46:58;13.98;;;3.97;;
836;SDS011;400;53.550;9.932;2023-04-25T02:49:26;9.02;;;3.63;;
836;SDS011;400;53.550;9.932;2023-04-25T02:51:53;12.02;;;3.97;;
836;SDS011;400;53.550;9.932;2023-04-25T02:54:20;11.07;;;3.80;;
836;SDS011;400;53.550;9.932;2023-04-25T02:56:47;15.07;;;4.57;;
836;SDS011;400;53.550;9.932;2023-04-25T02:59:13;7.68;;;3.63;;
836;SDS011;400;53.550;9.932;2023-04-25T03:01:41;9.00;;;4.03;;
836;SDS011;400;53.550;9.932;2023-04-25T03:04:08;11.25;;;3.92;;
836;SDS011;400;53.550;9.932;2023-04-25T03:06:36;8.52;;;3.45;;
836;SDS011;400;53.550;9.932;2023-04-25T03:09:03;11.50;;;4.28;;
836;SDS011;400;53.550;9.932;2023-04-25T03:11:30;12.30;;;4.60;;
836;SDS011;400;53.550;9.932;2023-04-25T03:13:57;9.82;;;3.47;;
836;SDS011;400;53.550;9.932;2023-04-25T03:16:23;9.48;;;3.67;;
836;SDS011;400;53.550;9.932;2023-04-25T03:18:50;12.38;;;4.07;;
836;SDS011;400;53.550;9.932;2023-04-25T03:21:17;12.48;;;3.97;;
836;SDS011;400;53.550;9.932;2023-04-25T03:23:45;9.95;;;4.70;;
836;SDS011;400;53.550;9.932;2023-04-25T03:26:12;12.30;;;3.50;;
836;SDS011;400;53.550;9.932;2023-04-25T03:28:39;15.68;;;3.70;;
836;SDS011;400;53.550;9.932;2023-04-25T03:31:06;6.53;;;2.95;;
836;SDS011;400;53.550;9.932;2023-04-25T03:33:32;12.43;;;3.83;;
836;SDS011;400;53.550;9.932;2023-04-25T03:35:59;11.32;;;5.57;;
836;SDS011;400;53.550;9.932;2023-04-25T03:38:27;7.88;;;3.92;;
836;SDS011;400;53.550;9.932;2023-04-25T03:40:55;9.88;;;3.00;;
836;SDS011;400;53.550;9.932;2023-04-25T03:43:22;10.20;;;3.83;;
836;SDS011;400;53.550;9.932;2023-04-25T03:45:49;11.55;;;3.08;;
836;SDS011;400;53.550;9.932;2023-04-25T03:48:16;11.25;;;3.13;;
836;SDS011;400;53.550;9.932;2023-04-25T03:50:44;13.27;;;3.20;;
836;SDS011;400;53.550;9.932;2023-04-25T03:53:11;9.82;;;3.47;;
836;SDS011;400;53.550;9.932;2023-04-25T03:55:38;9.80;;;3.00;;
836;SDS011;400;53.550;9.932;2023-04-25T03:58:06;10.80;;;2.53;;
836;SDS011;400;53.550;9.932;2023-04-25T04:00:34;8.85;;;4.05;;
836;SDS011;400;53.550;9.932;2023-04-25T04:03:01;10.25;;;2.83;;
836;SDS011;400;53.550;9.932;2023-04-25T04:05:29;10.40;;;2.50;;
836;SDS011;400;53.550;9.932;2023-04-25T04:07:58;5.70;;;2.13;;
836;SDS011;400;53.550;9.932;2023-04-25T04:10:27;7.93;;;2.72;;
836;SDS011;400;53.550;9.932;2023-04-25T04:12:54;7.95;;;2.50;;
836;SDS011;400;53.550;9.932;2023-04-25T04:15:22;8.30;;;3.97;;
836;SDS011;400;53.550;9.932;2023-04-25T04:17:49;9.45;;;3.22;;
836;SDS011;400;53.550;9.932;2023-04-25T04:20:18;12.90;;;4.07;;
836;SDS011;400;53.550;9.932;2023-04-25T04:22:46;13.45;;;4.60;;
836;SDS011;400;53.550;9.932;2023-04-25T04:25:14;7.32;;;2.53;;
836;SDS011;400;53.550;9.932;2023-04-25T04:27:42;9.32;;;2.92;;
836;SDS011;400;53.550;9.932;2023-04-25T04:30:11;8.93;;;3.50;;
836;SDS011;400;53.550;9.932;2023-04-25T04:32:39;7.78;;;3.80;;
836;SDS011;400;53.550;9.932;2023-04-25T04:35:08;7.05;;;3.95;;
836;SDS011;400;53.550;9.932;2023-04-25T04:37:36;8.85;;;4.40;;
836;SDS011;400;53.550;9.932;2023-04-25T04:40:03;13.05;;;3.25;;
836;SDS011;400;53.550;9.932;2023-04-25T04:42:31;9.25;;;3.50;;
836;SDS011;400;53.550;9.932;2023-04-25T04:44:58;9.57;;;2.10;;
836;SDS011;400;53.550;9.932;2023-04-25T04:47:26;6.90;;;2.60;;
836;SDS011;400;53.550;9.932;2023-04-25T04:49:57;6.13;;;2.53;;
836;SDS011;400;53.550;9.932;2023-04-25T04:52:24;7.07;;;3.25;;
836;SDS011;400;53.550;9.932;2023-04-25T04:54:53;11.35;;;3.80;;
836;SDS011;400;53.550;9.932;2023-04-25T04:57:19;9.95;;;2.70;;
836;SDS011;400;53.550;9.932;2023-04-25T04:59:46;10.70;;;2.58;;
836;SDS011;400;53.550;9.932;2023-04-25T05:02:14;23.10;;;10.75;;
836;SDS011;400;53.550;9.932;2023-04-25T05:04:43;6.70;;;2.85;;
836;SDS011;400;53.550;9.932;2023-04-25T05:07:12;12.15;;;3.65;;
836;SDS011;400;53.550;9.932;2023-04-25T05:09:39;7.20;;;3.00;;
836;SDS011;400;53.550;9.932;2023-04-25T05:12:06;12.95;;;3.60;;
836;SDS011;400;53.550;9.932;2023-04-25T05:14:34;7.95;;;3.40;;
836;SDS011;400;53.550;9.932;2023-04-25T05:17:02;10.13;;;3.10;;
836;SDS011;400;53.550;9.932;2023-04-25T05:19:31;14.15;;;3.33;;
836;SDS011;400;53.550;9.932;2023-04-25T05:21:58;7.45;;;2.75;;
836;SDS011;400;53.550;9.932;2023-04-25T05:24:27;9.85;;;3.53;;
836;SDS011;400;53.550;9.932;2023-04-25T05:26:58;11.48;;;3.65;;
836;SDS011;400;53.550;9.932;2023-04-25T05:29:26;14.70;;;3.40;;
836;SDS011;400;53.550;9.932;2023-04-25T05:31:55;9.13;;;2.70;;
836;SDS011;400;53.550;9.932;2023-04-25T05:34:25;7.28;;;2.50;;
836;SDS011;400;53.550;9.932;2023-04-25T05:36:57;10.07;;;3.15;;
836;SDS011;400;53.550;9.932;2023-04-25T05:39:27;8.35;;;2.22;;
836;SDS011;400;53.550;9.932;2023-04-25T05:41:55;14.98;;;3.45;;
836;SDS011;400;53.550;9.932;2023-04-25T05:44:23;6.78;;;2.80;;
836;SDS011;400;53.550;9.932;2023-04-25T05:46:56;4.65;;;2.80;;
836;SDS011;400;53.550;9.932;2023-04-25T05:49:27;6.07;;;3.30;;
836;SDS011;400;53.550;9.932;2023-04-25T05:51:56;8.05;;;3.00;;
836;SDS011;400;53.550;9.932;2023-04-25T05:54:23;8.93;;;3.33;;
836;SDS011;400;53.550;9.932;2023-04-25T05:56:51;6.40;;;3.08;;
836;SDS011;400;53.550;9.932;2023-04-25T05:59:18;4.65;;;2.20;;
836;SDS011;400;53.550;9.932;2023-04-25T06:01:46;5.68;;;3.10;;
836;SDS011;400;53.550;9.932;2023-04-25T06:04:13;7.93;;;2.50;;
836;SDS011;400;53.550;9.932;2023-04-25T06:06:40;8.27;;;2.33;;
836;SDS011;400;53.550;9.932;2023-04-25T06:09:09;12.55;;;3.10;;
836;SDS011;400;53.550;9.932;2023-04-25T06:11:36;7.50;;;2.90;;
836;SDS011;400;53.550;9.932;2023-04-25T06:14:05;9.27;;;2.75;;
836;SDS011;400;53.550;9.932;2023-04-25T06:16:32;9.68;;;3.15;;
836;SDS011;400;53.550;9.932;2023-04-25T06:18:59;11.63;;;4.30;;
836;SDS011;400;53.550;9.932;2023-04-25T06:21:26;14.48;;;2.92;;
836;SDS011;400;53.550;9.932;2023-04-25T06:23:53;13.20;;;3.58;;
836;SDS011;400;53.550;9.932;2023-04-25T06:26:22;9.77;;;3.95;;
836;SDS011;400;53.550;9.932;2023-04-25T06:28:50;6.63;;;2.58;;
836;SDS011;400;53.550;9.932;2023-04-25T06:31:18;11.65;;;3.45;;
836;SDS011;400;53.550;9.932;2023-04-25T06:33:46;10.05;;;2.85;;
836;SDS011;400;53.550;9.932;2023-04-25T06:36:16;7.28;;;2.97;;
836;SDS011;400;53.550;9.932;2023-04-25T06:38:45;9.25;;;2.90;;
836;SDS011;400;53.550;9.932;2023-04-25T06:41:13;7.80;;;2.72;;
836;SDS011;400;53.550;9.932;2023-04-25T06:43:43;9.38;;;2.72;;
836;SDS011;400;53.550;9.932;2023-04-25T06:46:14;8.25;;;3.47;;
836;SDS011;400;53.550;9.932;2023-04-25T06:48:44;5.25;;;2.22;;
836;SDS011;400;53.550;9.932;2023-04-25T06:51:12;5.22;;;2.58;;
836;SDS011;400;53.550;9.932;2023-04-25T06:53:43;6.30;;;2.45;;
836;SDS011;400;53.550;9.932;2023-04-25T06:56:13;9.63;;;2.65;;
836;SDS011;400;53.550;9.932;2023-04-25T06:58:43;7.97;;;2.45;;
836;SDS011;400;53.550;9.932;2023-04-25T07:01:11;9.38;;;2.70;;
836;SDS011;400;53.550;9.932;2023-04-25T07:03:41;7.80;;;2.50;;
836;SDS011;400;53.550;9.932;2023-04-25T07:06:11;7.97;;;4.03;;
836;SDS011;400;53.550;9.932;2023-04-25T07:08:38;5.00;;;2.65;;
836;SDS011;400;53.550;9.932;2023-04-25T07:11:04;8.02;;;2.10;;
836;SDS011;400;53.550;9.932;2023-04-25T07:13:31;10.27;;;2.00;;
836;SDS011;400;53.550;9.932;2023-04-25T07:15:59;6.35;;;2.50;;
836;SDS011;400;53.550;9.932;2023-04-25T07:18:30;6.47;;;2.40;;
836;SDS011;400;53.550;9.932;2023-04-25T07:21:04;7.17;;;2.10;;
836;SDS011;400;53.550;9.932;2023-04-25T07:23:34;6.60;;;2.30;;
836;SDS011;400;53.550;9.932;2023-04-25T07:26:02;3.20;;;1.65;;
836;SDS011;400;53.550;9.932;2023-04-25T07:28:29;7.10;;;2.20;;
836;SDS011;400;53.550;9.932;2023-04-25T07:30:56;8.82;;;2.40;;
836;SDS011;400;53.550;9.932;2023-04-25T07:33:23;8.02;;;3.03;;
836;SDS011;400;53.550;9.932;2023-04-25T07:35:52;3.80;;;1.90;;
836;SDS011;400;53.550;9.932;2023-04-25T07:38:21;7.15;;;2.10;;
836;SDS011;400;53.550;9.932;2023-04-25T07:40:52;8.02;;;2.20;;
836;SDS011;400;53.550;9.932;2023-04-25T07:43:20;4.20;;;2.13;;
836;SDS011;400;53.550;9.932;2023-04-25T07:45:48;6.20;;;2.20;;
836;SDS011;400;53.550;9.932;2023-04-25T07:48:17;5.57;;;1.85;;
836;SDS011;400;53.550;9.932;2023-04-25T07:50:45;10.45;;;2.17;;
836;SDS011;400;53.550;9.932;2023-04-25T07:53:12;11.23;;;2.35;;
836;SDS011;400;53.550;9.932;2023-04-25T07:55:43;3.85;;;1.70;;
836;SDS011;400;53.550;9.932;2023-04-25T07:58:17;3.78;;;1.70;;
836;SDS011;400;53.550;9.932;2023-04-25T08:00:50;4.38;;;1.80;;
836;SDS011;400;53.550;9.932;2023-04-25T08:03:18;4.93;;;1.40;;
836;SDS011;400;53.550;9.932;2023-04-25T08:05:46;4.50;;;2.60;;
836;SDS011;400;53.550;9.932;2023-04-25T08:08:15;4.10;;;2.00;;
836;SDS011;400;53.550;9.932;2023-04-25T08:10:42;9.67;;;2.10;;
836;SDS011;400;53.550;9.932;2023-04-25T08:13:08;7.10;;;1.67;;
836;SDS011;400;53.550;9.932;2023-04-25T08:15:39;4.07;;;1.77;;
836;SDS011;400;53.550;9.932;2023-04-25T08:18:11;3.20;;;1.23;;
836;SDS011;400;53.550;9.932;2023-04-25T08:20:39;5.63;;;1.80;;
836;SDS011;400;53.550;9.932;2023-04-25T08:23:07;5.20;;;1.85;;
836;SDS011;400;53.550;9.932;2023-04-25T08:25:33;2.40;;;1.53;;
836;SDS011;400;53.550;9.932;2023-04-25T08:28:00;4.43;;;1.23;;
836;SDS011;400;53.550;9.932;2023-04-25T08:30:28;3.70;;;1.90;;
836;SDS011;400;53.550;9.932;2023-04-25T08:32:57;3.77;;;1.70;;
836;SDS011;400;53.550;9.932;2023-04-25T08:35:28;3.80;;;1.50;;
836;SDS011;400;53.550;9.932;2023-04-25T08:38:00;7.63;;;1.60;;
836;SDS011;400;53.550;9.932;2023-04-25T08:40:27;2.25;;;0.95;;
836;SDS011;400;53.550;9.932;2023-04-25T08:42:55;7.68;;;2.53;;
836;SDS011;400;53.550;9.932;2023-04-25T08:45:24;10.10;;;3.23;;
836;SDS011;400;53.550;9.932;2023-04-25T08:47:54;3.23;;;1.53;;
836;SDS011;400;53.550;9.932;2023-04-25T08:50:25;5.00;;;1.60;;
836;SDS011;400;53.550;9.932;2023-04-25T08:52:55;4.10;;;1.45;;
836;SDS011;400;53.550;9.932;2023-04-25T08:55:26;5.40;;;1.70;;
836;SDS011;400;53.550;9.932;2023-04-25T08:57:54;4.85;;;1.60;;
836;SDS011;400;53.550;9.932;2023-04-25T09:00:22;6.97;;;1.70;;
836;SDS011;400;53.550;9.932;2023-04-25T09:02:51;4.93;;;2.33;;
836;SDS011;400;53.550;9.932;2023-04-25T09:05:21;3.80;;;1.07;;
836;SDS011;400;53.550;9.932;2023-04-25T09:07:48;6.28;;;1.33;;
836;SDS011;400;53.550;9.932;2023-04-25T09:10:15;1.50;;;1.13;;
836;SDS011;400;53.550;9.932;2023-04-25T09:12:43;4.47;;;1.10;;
836;SDS011;400;53.550;9.932;2023-04-25T09:15:10;3.25;;;1.88;;
836;SDS011;400;53.550;9.932;2023-04-25T09:17:41;2.70;;;1.00;;
836;SDS011;400;53.550;9.932;2023-04-25T09:20:10;4.50;;;1.50;;
836;SDS011;400;53.550;9.932;2023-04-25T09:22:41;1.30;;;0.90;;
836;SDS011;400;53.550;9.932;2023-04-25T09:25:12;5.90;;;1.50;;
836;SDS011;400;53.550;9.932;2023-04-25T09:27:49;4.50;;;1.30;;
836;SDS011;400;53.550;9.932;2023-04-25T09:30:18;6.90;;;2.15;;
836;SDS011;400;53.550;9.932;2023-04-25T09:32:56;4.20;;;1.47;;
836;SDS011;400;53.550;9.932;2023-04-25T09:35:23;11.85;;;2.35;;
836;SDS011;400;53.550;9.932;2023-04-25T09:37:53;5.30;;;1.73;;
836;SDS011;400;53.550;9.932;2023-04-25T09:40:21;4.17;;;2.40;;
836;SDS011;400;53.550;9.932;2023-04-25T09:42:48;4.07;;;1.60;;
836;SDS011;400;53.550;9.932;2023-04-25T09:45:18;3.90;;;1.53;;
836;SDS011;400;53.550;9.932;2023-04-25T09:47:46;2.37;;;0.97;;
836;SDS011;400;53.550;9.932;2023-04-25T09:50:16;4.13;;;1.05;;
836;SDS011;400;53.550;9.932;2023-04-25T09:52:44;1.63;;;1.25;;
836;SDS011;400;53.550;9.932;2023-04-25T09:55:12;3.07;;;1.10;;
836;SDS011;400;53.550;9.932;2023-04-25T09:57:40;6.53;;;3.10;;
836;SDS011;400;53.550;9.932;2023-04-25T10:00:07;4.05;;;1.05;;
836;SDS011;400;53.550;9.932;2023-04-25T10:02:39;4.63;;;1.73;;
836;SDS011;400;53.550;9.932;2023-04-25T10:05:13;4.20;;;1.30;;
836;SDS011;400;53.550;9.932;2023-04-25T10:07:43;2.90;;;1.20;;
836;SDS011;400;53.550;9.932;2023-04-25T10:10:14;3.30;;;1.20;;
836;SDS011;400;53.550;9.932;2023-04-25T10:12:41;7.47;;;1.77;;
836;SDS011;400;53.550;9.932;2023-04-25T10:15:09;3.40;;;1.47;;
836;SDS011;400;53.550;9.932;2023-04-25T10:17:40;4.63;;;1.23;;
836;SDS011;400;53.550;9.932;2023-04-25T10:20:08;4.32;;;0.88;;
836;SDS011;400;53.550;9.932;2023-04-25T10:22:39;4.03;;;1.23;;
836;SDS011;400;53.550;9.932;2023-04-25T10:25:14;2.78;;;1.17;;
836;SDS011;400;53.550;9.932;2023-04-25T10:27:42;6.53;;;1.53;;
836;SDS011;400;53.550;9.932;2023-04-25T10:30:10;4.37;;;1.43;;
836;SDS011;400;53.550;9.932;2023-04-25T10:32:41;2.60;;;1.20;;
836;SDS011;400;53.550;9.932;2023-04-25T10:35:13;3.47;;;1.10;;
836;SDS011;400;53.550;9.932;2023-04-25T10:37:59;4.57;;;0.93;;
836;SDS011;400;53.550;9.932;2023-04-25T10:40:39;4.97;;;1.60;;
836;SDS011;400;53.550;9.932;2023-04-25T10:43:34;4.50;;;2.03;;
836;SDS011;400;53.550;9.932;2023-04-25T10:46:16;5.00;;;1.47;;
836;SDS011;400;53.550;9.932;2023-04-25T10:48:50;6.97;;;3.47;;
836;SDS011;400;53.550;9.932;2023-04-25T10:51:19;7.13;;;1.77;;
836;SDS011;400;53.550;9.932;2023-04-25T10:53:56;2.47;;;1.58;;
836;SDS011;400;53.550;9.932;2023-04-25T10:56:26;1.60;;;1.00;;
836;SDS011;400;53.550;9.932;2023-04-25T10:59:05;3.30;;;1.80;;
836;SDS011;400;53.550;9.932;2023-04-25T11:01:36;4.20;;;1.57;;
836;SDS011;400;53.550;9.932;2023-04-25T11:04:04;5.45;;;1.85;;
836;SDS011;400;53.550;9.932;2023-04-25T11:06:33;5.03;;;1.90;;
836;SDS011;400;53.550;9.932;2023-04-25T11:09:12;5.23;;;2.00;;
836;SDS011;400;53.550;9.932;2023-04-25T11:11:41;5.73;;;2.57;;
836;SDS011;400;53.550;9.932;2023-04-25T11:14:09;4.60;;;1.70;;
836;SDS011;400;53.550;9.932;2023-04-25T11:16:37;6.47;;;1.47;;
836;SDS011;400;53.550;9.932;2023-04-25T11:19:05;6.33;;;1.47;;
836;SDS011;400;53.550;9.932;2023-04-25T11:21:36;4.93;;;1.40;;
836;SDS011;400;53.550;9.932;2023-04-25T11:24:12;6.10;;;1.63;;
836;SDS011;400;53.550;9.932;2023-04-25T11:26:45;7.07;;;1.43;;
836;SDS011;400;53.550;9.932;2023-04-25T11:29:17;2.77;;;1.07;;
836;SDS011;400;53.550;9.932;2023-04-25T11:31:44;3.53;;;1.70;;
836;SDS011;400;53.550;9.932;2023-04-25T11:34:17;4.83;;;1.50;;
836;SDS011;400;53.550;9.932;2023-04-25T11:36:48;1.00;;;0.85;;
836;SDS011;400;53.550;9.932;2023-04-25T11:39:23;1.40;;;0.47;;
836;SDS011;400;53.550;9.932;2023-04-25T11:41:58;2.10;;;0.80;;
836;SDS011;400;53.550;9.932;2023-04-25T11:44:28;1.38;;;0.80;;
836;SDS011;400;53.550;9.932;2023-04-25T11:46:56;1.75;;;1.00;;
836;SDS011;400;53.550;9.932;2023-04-25T11:49:23;4.35;;;1.38;;
836;SDS011;400;53.550;9.932;2023-04-25T11:51:51;4.20;;;1.05;;
836;SDS011;400;53.550;9.932;2023-04-25T11:54:18;2.30;;;0.63;;
836;SDS011;400;53.550;9.932;2023-04-25T11:56:45;1.97;;;0.90;;
836;SDS011;400;53.550;9.932;2023-04-25T11:59:14;3.30;;;1.20;;
836;SDS011;400;53.550;9.932;2023-04-25T12:01:47;2.58;;;1.00;;
836;SDS011;400;53.550;9.932;2023-04-25T12:04:17;3.80;;;1.20;;
836;SDS011;400;53.550;9.932;2023-04-25T12:06:46;5.28;;;1.42;;
836;SDS011;400;53.550;9.932;2023-04-25T12:09:15;5.00;;;1.65;;
836;SDS011;400;53.550;9.932;2023-04-25T12:11:47;3.92;;;1.63;;
836;SDS011;400;53.550;9.932;2023-04-25T12:14:24;2.03;;;1.10;;
836;SDS011;400;53.550;9.932;2023-04-25T12:16:55;3.37;;;1.37;;
836;SDS011;400;53.550;9.932;2023-04-25T12:19:24;3.73;;;1.00;;
836;SDS011;400;53.550;9.932;2023-04-25T12:21:52;2.13;;;0.97;;
836;SDS011;400;53.550;9.932;2023-04-25T12:24:21;0.97;;;0.53;;
836;SDS011;400;53.550;9.932;2023-04-25T12:26:51;2.17;;;0.93;;
836;SDS011;400;53.550;9.932;2023-04-25T12:29:19;1.67;;;0.70;;
836;SDS011;400;53.550;9.932;2023-04-25T12:31:50;1.77;;;0.77;;
836;SDS011;400;53.550;9.932;2023-04-25T12:34:18;4.47;;;2.63;;
836;SDS011;400;53.550;9.932;2023-04-25T12:36:45;9.07;;;1.77;;
836;SDS011;400;53.550;9.932;2023-04-25T12:39:16;7.20;;;1.33;;
836;SDS011;400;53.550;9.932;2023-04-25T12:41:44;3.08;;;0.80;;
836;SDS011;400;53.550;9.932;2023-04-25T12:44:11;3.35;;;0.90;;
836;SDS011;400;53.550;9.932;2023-04-25T12:46:39;0.95;;;0.90;;
836;SDS011;400;53.550;9.932;2023-04-25T12:49:09;2.17;;;0.88;;
836;SDS011;400;53.550;9.932;2023-04-25T12:51:39;5.73;;;1.17;;
836;SDS011;400;53.550;9.932;2023-04-25T12:54:06;6.23;;;1.90;;
836;SDS011;400;53.550;9.932;2023-04-25T12:56:35;6.00;;;1.33;;
836;SDS011;400;53.550;9.932;2023-04-25T12:59:02;7.30;;;2.73;;
836;SDS011;400;53.550;9.932;2023-04-25T13:01:29;8.20;;;2.35;;
836;SDS011;400;53.550;9.932;2023-04-25T13:03:57;7.13;;;1.60;;
836;SDS011;400;53.550;9.932;2023-04-25T13:06:25;5.50;;;1.53;;
836;SDS011;400;53.550;9.932;2023-04-25T13:08:53;7.90;;;2.20;;
836;SDS011;400;53.550;9.932;2023-04-25T13:11:22;2.22;;;1.13;;
836;SDS011;400;53.550;9.932;2023-04-25T13:13:49;5.63;;;2.27;;
836;SDS011;400;53.550;9.932;2023-04-25T13:16:17;1.07;;;0.90;;
836;SDS011;400;53.550;9.932;2023-04-25T13:18:47;3.50;;;1.20;;
836;SDS011;400;53.550;9.932;2023-04-25T13:21:15;5.18;;;1.27;;
836;SDS011;400;53.550;9.932;2023-04-25T13:23:43;3.87;;;1.53;;
836;SDS011;400;53.550;9.932;2023-04-25T13:26:11;5.33;;;1.30;;
836;SDS011;400;53.550;9.932;2023-04-25T13:28:38;7.80;;;2.00;;
836;SDS011;400;53.550;9.932;2023-04-25T13:31:06;2.70;;;1.07;;
836;SDS011;400;53.550;9.932;2023-04-25T13:33:33;6.97;;;1.90;;
836;SDS011;400;53.550;9.932;2023-04-25T13:36:00;4.67;;;1.33;;
836;SDS011;400;53.550;9.932;2023-04-25T13:38:29;5.63;;;1.65;;
836;SDS011;400;53.550;9.932;2023-04-25T13:41:00;2.83;;;1.25;;
836;SDS011;400;53.550;9.932;2023-04-25T13:43:28;2.87;;;1.30;;
836;SDS011;400;53.550;9.932;2023-04-25T13:45:55;3.67;;;1.25;;
836;SDS011;400;53.550;9.932;2023-04-25T13:48:23;4.07;;;1.80;;
836;SDS011;400;53.550;9.932;2023-04-25T13:50:51;2.20;;;1.20;;
836;SDS011;400;53.550;9.932;2023-04-25T13:53:19;4.30;;;1.00;;
836;SDS011;400;53.550;9.932;2023-04-25T13:55:46;4.47;;;1.80;;
836;SDS011;400;53.550;9.932;2023-04-25T13:58:19;2.63;;;1.20;;
836;SDS011;400;53.550;9.932;2023-04-25T14:00:50;2.17;;;1.40;;
836;SDS011;400;53.550;9.932;2023-04-25T14:03:20;5.32;;;1.40;;
836;SDS011;400;53.550;9.932;2023-04-25T14:05:47;2.30;;;1.95;;
836;SDS011;400;53.550;9.932;2023-04-25T14:08:14;5.40;;;2.70;;
836;SDS011;400;53.550;9.932;2023-04-25T14:10:41;6.57;;;2.00;;
836;SDS011;400;53.550;9.932;2023-04-25T14:13:08;5.05;;;1.90;;
836;SDS011;400;53.550;9.932;2023-04-25T14:15:37;5.00;;;2.00;;
836;SDS011;400;53.550;9.932;2023-04-25T14:18:04;2.05;;;1.35;;
836;SDS011;400;53.550;9.932;2023-04-25T14:20:32;3.03;;;1.70;;
836;SDS011;400;53.550;9.932;2023-04-25T14:22:59;5.55;;;1.60;;
836;SDS011;400;53.550;9.932;2023-04-25T14:25:26;5.82;;;1.92;;
836;SDS011;400;53.550;9.932;2023-04-25T14:27:54;6.88;;;1.15;;
836;SDS011;400;53.550;9.932;2023-04-25T14:30:21;3.23;;;1.20;;
836;SDS011;400;53.550;9.932;2023-04-25T14:32:51;2.83;;;1.30;;
836;SDS011;400;53.550;9.932;2023-04-25T14:35:18;3.13;;;1.20;;
836;SDS011;400;53.550;9.932;2023-04-25T14:37:45;4.03;;;2.08;;
836;SDS011;400;53.550;9.932;2023-04-25T14:40:12;4.68;;;2.22;;
836;SDS011;400;53.550;9.932;2023-04-25T14:42:40;3.50;;;1.50;;
836;SDS011;400;53.550;9.932;2023-04-25T14:45:09;2.80;;;1.40;;
836;SDS011;400;53.550;9.932;2023-04-25T14:47:40;6.40;;;1.70;;
836;SDS011;400;53.550;9.932;2023-04-25T14:50:11;4.83;;;2.60;;
836;SDS011;400;53.550;9.932;2023-04-25T14:52:39;3.08;;;1.10;;
836;SDS011;400;53.550;9.932;2023-04-25T14:55:06;2.10;;;1.00;;
836;SDS011;400;53.550;9.932;2023-04-25T14:57:33;3.53;;;1.08;;
836;SDS011;400;53.550;9.932;2023-04-25T15:00:01;3.93;;;1.47;;
836;SDS011;400;53.550;9.932;2023-04-25T15:02:30;4.15;;;1.45;;
836;SDS011;400;53.550;9.932;2023-04-25T15:04:57;9.10;;;2.60;;
836;SDS011;400;53.550;9.932;2023-04-25T15:07:25;5.97;;;1.92;;
836;SDS011;400;53.550;9.932;2023-04-25T15:09:52;3.87;;;1.20;;
836;SDS011;400;53.550;9.932;2023-04-25T15:12:20;3.03;;;1.37;;
836;SDS011;400;53.550;9.932;2023-04-25T15:14:48;4.60;;;1.40;;
836;SDS011;400;53.550;9.932;2023-04-25T15:17:17;4.63;;;1.67;;
836;SDS011;400;53.550;9.932;2023-04-25T15:19:43;3.85;;;1.90;;
836;SDS011;400;53.550;9.932;2023-04-25T15:22:10;4.05;;;1.70;;
836;SDS011;400;53.550;9.932;2023-04-25T15:24:38;7.78;;;1.45;;
836;SDS011;400;53.550;9.932;2023-04-25T15:27:05;6.00;;;1.83;;
836;SDS011;400;53.550;9.932;2023-04-25T15:29:34;4.28;;;1.52;;
836;SDS011;400;53.550;9.932;2023-04-25T15:32:01;4.97;;;1.77;;
836;SDS011;400;53.550;9.932;2023-04-25T15:34:29;9.17;;;1.67;;
836;SDS011;400;53.550;9.932;2023-04-25T15:36:55;3.97;;;1.23;;
836;SDS011;400;53.550;9.932;2023-04-25T15:39:23;5.63;;;1.30;;
836;SDS011;400;53.550;9.932;2023-04-25T15:41:51;3.10;;;1.27;;
836;SDS011;400;53.550;9.932;2023-04-25T15:44:18;7.47;;;1.63;;
836;SDS011;400;53.550;9.932;2023-04-25T15:46:45;6.38;;;1.65;;
836;SDS011;400;53.550;9.932;2023-04-25T15:49:12;5.28;;;1.60;;
836;SDS011;400;53.550;9.932;2023-04-25T15:51:40;2.73;;;1.37;;